Latest Weather Observations for Samuel Hill

IDQ60801

Issued at 7:35 am EST Friday 28 November 2014 (issued every 30 minutes, with the page automatically refreshed every 10 minutes)

About weather observations | Map of weather stations | Latest weather observations for QLD | Other Formats
Station Details ID: 033308 Name: SAMUEL HILL AERO Lat: -22.74 Lon: 150.66 Height: 31.0 m
Data from the previous 72 hours. | See also: Recent months at Samuel Hill
Date/Time
EST
Temp
°C
App
Temp
°C
Dew
Point
Rel
Hum
%
Delta-T
°C
Wind Press
QNH
hPa
Press
MSL
hPa
Rain
since 9 am
mm
Dir
 
Spd
km/h
Gust
km/h
Spd
kts
Gust
kts
28/07:30am 27.3 27.1 17.5 55 6.2 E 15 28 8 15 1015.3 1015.1 0.0
28/07:00am 26.2 26.2 18.1 61 5.1 ESE 15 26 8 14 1015.1 1014.9 0.0
28/06:30am 23.0 26.1 19.6 81 2.2 SSE 2 7 1 4 1015.0 1014.8 0.0
28/06:00am 18.9 21.6 17.7 93 0.7 CALM 0 0 0 0 1014.5 1014.3 0.0
28/05:30am 17.3 19.3 16.0 92 0.8 CALM 0 4 0 2 1014.1 1013.9 0.0
28/05:00am 17.3 19.3 16.0 92 0.8 CALM 0 0 0 0 1013.7 1013.5 0.0
28/04:30am 17.3 19.2 15.8 91 0.9 CALM 0 0 0 0 1013.4 1013.2 0.0
28/04:00am 17.7 19.9 16.6 93 0.7 CALM 0 0 0 0 1013.2 1013.0 0.0
28/03:30am 17.4 19.4 16.1 92 0.8 CALM 0 0 0 0 1013.3 1013.1 0.0
28/03:00am 17.6 19.6 16.1 91 0.9 CALM 0 0 0 0 1013.3 1013.1 0.0
28/02:30am 17.5 19.6 16.2 92 0.8 CALM 0 0 0 0 1013.3 1013.1 0.0
28/02:00am 17.5 19.4 15.8 90 1.0 CALM 0 0 0 0 1013.4 1013.2 0.0
28/01:30am 17.4 19.3 15.7 90 1.0 CALM 0 0 0 0 1013.5 1013.3 0.0
28/01:00am 17.6 19.6 15.9 90 1.0 CALM 0 0 0 0 1013.7 1013.5 0.0
28/12:30am 17.7 19.7 16.0 90 1.0 CALM 0 0 0 0 1013.8 1013.6 0.0
28/12:00am 18.1 20.2 16.3 89 1.1 CALM 0 0 0 0 1013.9 1013.7 0.0
 
Date/Time
EST
Temp
°C
App
Temp
°C
Dew
Point
Rel
Hum
%
Delta-T
°C
Wind Press
QNH
hPa
Press
MSL
hPa
Rain
since 9 am
mm
Dir
 
Spd
km/h
Gust
km/h
Spd
kts
Gust
kts
27/11:30pm 18.3 20.6 16.8 91 0.9 CALM 0 0 0 0 1014.1 1013.9 0.0
27/11:00pm 18.5 20.7 16.5 88 1.2 CALM 0 0 0 0 1014.2 1014.0 0.0
27/10:30pm 18.7 20.9 16.5 87 1.3 CALM 0 0 0 0 1014.4 1014.2 0.0
27/10:00pm 19.1 21.5 16.9 87 1.3 CALM 0 0 0 0 1014.4 1014.2 0.0
27/09:30pm 19.8 22.4 17.4 86 1.5 CALM 0 0 0 0 1014.3 1014.1 0.0
27/09:00pm 20.2 22.8 17.4 84 1.7 CALM 0 0 0 0 1014.0 1013.8 0.0
27/08:30pm 20.9 23.7 17.9 83 1.9 CALM 0 0 0 0 1014.0 1013.8 0.0
27/08:00pm 22.8 25.0 19.2 80 2.3 SSE 6 9 3 5 1013.8 1013.6 0.0
27/07:30pm 23.7 26.1 19.6 78 2.6 E 6 9 3 5 1013.6 1013.4 0.0
27/07:00pm 24.2 26.1 19.7 76 2.9 ENE 9 13 5 7 1013.1 1012.9 0.0
27/06:30pm 25.0 26.5 19.8 73 3.4 E 11 17 6 9 1013.1 1012.9 0.0
27/06:00pm 25.6 26.3 19.7 70 3.8 ENE 15 22 8 12 1013.1 1012.9 0.0
27/05:30pm 26.4 26.7 19.5 66 4.5 E 17 24 9 13 1012.8 1012.6 0.0
27/05:00pm 27.3 27.9 19.4 62 5.1 ENE 15 22 8 12 1012.5 1012.3 0.0
27/04:30pm 28.4 27.7 17.3 51 7.0 ENE 17 26 9 14 1012.3 1012.1 0.0
27/04:00pm 28.8 28.1 17.3 49 7.3 E 17 26 9 14 1012.0 1011.8 0.0
27/03:30pm 29.6 29.5 17.8 49 7.5 E 15 24 8 13 1012.0 1011.8 0.0
27/03:00pm 30.4 29.8 17.5 46 8.2 SE 17 24 9 13 1012.1 1011.9 0.0
27/02:30pm 29.8 28.2 15.9 43 8.6 SE 19 28 10 15 1012.2 1012.0 0.0
27/02:00pm 30.8 29.6 17.5 45 8.5 ENE 20 32 11 17 1012.1 1011.9 0.0
27/01:30pm 30.5 29.5 16.5 43 8.8 ENE 17 30 9 16 1012.3 1012.1 0.0
27/01:00pm 30.4 30.0 17.1 44 8.4 ENE 15 26 8 14 1012.6 1012.4 0.0
27/12:30pm 30.3 30.2 17.0 44 8.4 E 13 24 7 13 1012.9 1012.7 0.0
27/12:00pm 30.5 30.0 15.8 41 9.1 E 13 22 7 12 1013.5 1013.3 0.0
27/11:30am 31.0 30.5 17.0 43 8.9 E 15 24 8 13 1013.8 1013.6 0.0
27/11:00am 29.9 30.6 18.0 48 7.6 ENE 11 24 6 13 1014.1 1013.9 0.0
27/10:30am 29.6 29.5 18.7 52 7.0 NE 17 26 9 14 1014.4 1014.2 0.0
27/10:00am 28.1 28.1 18.2 55 6.3 NE 15 22 8 12 1015.0 1014.8 0.0
27/09:30am 28.1 28.4 18.8 57 6.0 NE 15 20 8 11 1014.9 1014.7 0.0
27/09:00am 29.1 29.4 18.8 53 6.6 ENE 15 20 8 11 1015.1 1014.9 0.0
27/08:30am 27.9 28.7 19.1 58 5.7 E 13 20 7 11 1015.2 1015.0 0.0
27/08:00am 27.8 29.1 19.3 60 5.5 NE 11 17 6 9 1015.2 1015.0 0.0
27/07:30am 27.0 28.4 19.6 64 4.8 NE 11 17 6 9 1015.3 1015.1 0.0
27/07:00am 24.8 27.2 19.6 73 3.3 ESE 6 9 3 5 1015.2 1015.0 0.0
27/06:30am 23.4 27.2 20.1 82 2.1 CALM 0 0 0 0 1014.8 1014.6 0.0
27/06:00am 19.5 22.4 18.3 93 0.7 CALM 0 0 0 0 1014.7 1014.5 0.0
27/05:30am 17.4 19.4 16.1 92 0.8 CALM 0 0 0 0 1014.4 1014.2 0.0
27/05:00am 17.0 18.8 15.5 91 0.9 CALM 0 0 0 0 1014.2 1014.0 0.0
27/04:30am 17.6 19.6 16.1 91 0.9 CALM 0 0 0 0 1014.0 1013.8 0.0
27/04:00am 17.7 19.7 16.0 90 1.0 CALM 0 0 0 0 1013.9 1013.7 0.0
27/03:30am 18.2 19.7 16.7 91 0.9 WSW 4 7 2 4 1013.8 1013.6 0.0
27/03:00am 18.2 20.6 16.9 92 0.8 CALM 0 0 0 0 1013.6 1013.4 0.0
27/02:30am 17.7 19.7 15.9 89 1.1 CALM 0 0 0 0 1013.7 1013.5 0.0
27/02:00am 18.0 20.1 16.3 90 1.0 CALM 0 0 0 0 1014.0 1013.8 0.0
27/01:30am 18.0 20.1 16.2 89 1.1 CALM 0 0 0 0 1013.9 1013.7 0.0
27/01:00am 18.2 20.4 16.4 89 1.1 CALM 0 0 0 0 1014.3 1014.1 0.0
27/12:30am 18.6 20.7 17.1 91 0.9 S 2 6 1 3 1014.7 1014.5 0.0
27/12:00am 18.1 20.2 16.3 89 1.1 CALM 0 0 0 0 1014.6 1014.4 0.0
 
Date/Time
EST
Temp
°C
App
Temp
°C
Dew
Point
Rel
Hum
%
Delta-T
°C
Wind Press
QNH
hPa
Press
MSL
hPa
Rain
since 9 am
mm
Dir
 
Spd
km/h
Gust
km/h
Spd
kts
Gust
kts
26/11:30pm 18.3 20.4 16.3 88 1.2 CALM 0 0 0 0 1015.1 1014.9 0.0
26/11:00pm 18.9 21.2 16.7 87 1.3 CALM 0 0 0 0 1015.3 1015.1 0.0
26/10:30pm 18.9 21.2 16.7 87 1.3 CALM 0 0 0 0 1015.3 1015.1 0.0
26/10:00pm 19.8 22.6 17.9 89 1.2 CALM 0 0 0 0 1015.3 1015.1 0.0
26/09:30pm 19.9 22.4 17.3 85 1.6 CALM 0 0 0 0 1015.4 1015.2 0.0
26/09:00pm 20.6 22.1 17.6 83 1.8 S 6 7 3 4 1015.3 1015.1 0.0
26/08:30pm 21.5 23.7 17.5 78 2.5 ESE 2 6 1 3 1015.1 1014.9 0.0
26/08:00pm 22.8 24.6 18.8 78 2.5 ESE 7 9 4 5 1014.8 1014.6 0.0
26/07:30pm 23.0 24.9 18.5 76 2.8 SSE 6 9 3 5 1014.6 1014.4 0.0
26/07:00pm 24.1 26.7 18.5 71 3.5 E 2 7 1 4 1014.2 1014.0 0.0
26/06:30pm 25.0 26.5 18.9 69 3.9 E 9 17 5 9 1014.0 1013.8 0.0
26/06:00pm 25.8 25.9 19.2 67 4.2 E 17 24 9 13 1013.5 1013.3 0.0
26/05:30pm 26.7 26.6 18.8 62 5.1 E 17 26 9 14 1013.4 1013.2 0.0
26/05:00pm 27.9 28.5 19.4 60 5.5 E 15 20 8 11 1013.1 1012.9 0.0
26/04:30pm 27.2 26.7 19.0 61 5.3 ENE 20 30 11 16 1012.9 1012.7 0.0
26/04:00pm 28.2 27.9 19.1 57 5.9 ENE 19 28 10 15 1012.7 1012.5 0.0
26/03:30pm 28.7 29.2 19.3 56 6.1 ENE 15 22 8 12 1012.8 1012.6 0.0
26/03:00pm 29.9 29.6 19.6 54 6.7 ENE 20 32 11 17 1012.9 1012.7 0.0
26/02:30pm 29.8 30.0 18.6 51 7.2 ENE 15 24 8 13 1013.1 1012.9 0.0
26/02:00pm 29.7 28.8 18.2 50 7.4 E 20 28 11 15 1013.2 1013.0 0.0
26/01:30pm 30.1 29.2 18.2 49 7.6 E 20 32 11 17 1013.5 1013.3 0.0
26/01:00pm 29.7 29.0 18.2 50 7.4 E 19 30 10 16 1013.7 1013.5 0.0
26/12:30pm 30.8 30.6 18.5 47 7.9 E 17 28 9 15 1013.8 1013.6 0.0
26/12:00pm 29.9 28.3 17.4 47 7.9 E 22 32 12 17 1014.2 1014.0 0.0
26/11:30am 30.4 29.9 19.1 50 7.4 ENE 20 30 11 16 1014.4 1014.2 0.0
26/11:00am 30.3 29.9 19.0 50 7.3 ENE 19 30 10 16 1014.6 1014.4 0.0
26/10:30am 28.8 28.1 18.6 54 6.6 ENE 20 28 11 15 1015.1 1014.9 0.0
26/10:00am 29.4 29.0 19.4 55 6.5 NE 20 30 11 16 1015.2 1015.0 0.0
26/09:30am 28.7 27.7 19.6 58 5.9 NE 24 32 13 17 1015.2 1015.0 0.0
26/09:00am 28.2 27.8 19.4 59 5.7 ENE 20 32 11 17 1015.4 1015.2 0.0
26/08:30am 28.0 28.8 20.6 64 4.9 ENE 17 26 9 14 1015.3 1015.1 0.0
26/08:00am 27.2 29.2 21.5 71 3.8 ENE 13 24 7 13 1015.3 1015.1 0.0
26/07:30am 26.3 28.3 21.5 75 3.2 E 13 20 7 11 1015.1 1014.9 0.0
26/07:00am 25.4 29.5 21.5 79 2.6 SSE 2 7 1 4 1015.1 1014.9 0.0
26/06:30am 24.5 29.1 21.8 85 1.8 CALM 0 6 0 3 1014.8 1014.6 0.0
26/06:00am 22.1 25.2 21.1 94 0.7 S 6 7 3 4 1014.6 1014.4 0.0
26/05:30am 21.4 25.2 20.2 93 0.8 CALM 0 6 0 3 1014.2 1014.0 0.0
26/05:00am 21.4 25.3 20.4 94 0.6 CALM 0 0 0 0 1014.0 1013.8 0.0
26/04:49am 21.3 24.8 20.3 94 0.6 S 2 7 1 4 1013.9 1013.7 0.0
26/04:32am 20.3 23.6 19.1 93 0.8 CALM 0 0 0 0 1013.6 1013.4 0.0
26/04:30am 20.3 23.6 19.1 93 0.8 CALM 0 0 0 0 1013.5 1013.3 0.0
26/04:13am 20.2 23.4 18.9 92 0.8 CALM 0 0 0 0 1013.4 1013.2 0.0
26/04:00am 19.8 22.7 18.3 91 0.9 CALM 0 0 0 0 1013.2 1013.0 0.0
26/03:30am 20.1 23.2 18.6 91 0.9 CALM 0 0 0 0 1012.9 1012.7 0.0
26/03:29am 20.0 23.0 18.5 91 0.9 CALM 0 0 0 0 1012.9 1012.7 0.0
26/03:25am 20.1 23.2 18.6 91 0.9 CALM 0 0 0 0 1013.0 1012.8 0.0
26/03:00am 20.1 23.1 18.4 90 1.1 CALM 0 0 0 0 1012.9 1012.7 0.0
26/02:34am 20.1 23.0 18.2 89 1.2 CALM 0 0 0 0 1012.8 1012.6 0.0
26/02:30am 20.7 24.0 19.0 90 1.1 CALM 0 0 0 0 1012.8 1012.6 0.0
26/02:27am 20.8 24.1 19.1 90 1.1 CALM 0 0 0 0 1012.7 1012.5 0.0
26/02:00am 21.0 24.4 19.3 90 1.1 CALM 0 0 0 0 1012.7 1012.5 0.0
26/01:30am 21.5 25.0 19.6 89 1.2 CALM 0 0 0 0 1012.9 1012.7 0.0
26/01:13am 22.2 26.2 20.5 90 1.1 CALM 0 0 0 0 1013.1 1012.9 0.0
26/01:00am 22.0 25.6 19.7 87 1.5 CALM 0 0 0 0 1013.1 1012.9 0.0
26/12:45am 22.1 25.7 19.8 87 1.5 CALM 0 0 0 0 1013.3 1013.1 0.0
26/12:30am 23.1 27.3 21.0 88 1.4 CALM 0 0 0 0 1013.5 1013.3 0.0
26/12:00am 23.7 28.2 21.6 88 1.4 CALM 0 2 0 1 1013.9 1013.7 0.0
 
Date/Time
EST
Temp
°C
App
Temp
°C
Dew
Point
Rel
Hum
%
Delta-T
°C
Wind Press
QNH
hPa
Press
MSL
hPa
Rain
since 9 am
mm
Dir
 
Spd
km/h
Gust
km/h
Spd
kts
Gust
kts
25/11:30pm 23.6 28.0 21.3 87 1.5 CALM 0 0 0 0 1014.3 1014.1 0.0
25/11:00pm 24.2 29.0 22.1 88 1.4 CALM 0 0 0 0 1014.7 1014.5 0.0
25/10:46pm 24.1 28.8 22.0 88 1.4 CALM 0 0 0 0 1015.0 1014.8 0.0
25/10:30pm 24.1 28.8 22.0 88 1.4 CALM 0 6 0 3 1015.1 1014.9 0.0
25/10:00pm 23.9 28.7 22.2 90 1.1 CALM 0 0 0 0 1015.0 1014.8 0.0
25/09:51pm 23.4 28.0 21.7 90 1.1 CALM 0 0 0 0 1015.0 1014.8 0.0
25/09:30pm 22.8 26.8 20.5 87 1.5 CALM 0 0 0 0 1014.8 1014.6 0.0
25/09:00pm 23.6 27.9 21.1 86 1.6 CALM 0 0 0 0 1014.7 1014.5 0.0
25/08:30pm 24.0 28.4 21.3 85 1.8 CALM 0 0 0 0 1014.3 1014.1 0.0
25/08:00pm 24.7 28.0 21.8 84 1.9 NE 7 13 4 7 1013.9 1013.7 0.0
25/07:30pm 25.0 28.2 21.7 82 2.2 ENE 7 13 4 7 1013.7 1013.5 0.0
25/07:00pm 25.4 30.0 21.7 80 2.5 CALM 0 0 0 0 1013.6 1013.4 0.0
25/06:30pm 25.4 28.5 22.1 82 2.2 NE 9 15 5 8 1012.9 1012.7 0.0
25/06:00pm 26.2 27.5 21.6 76 3.1 ENE 17 24 9 13 1012.6 1012.4 0.0
25/05:30pm 26.7 28.0 21.7 74 3.3 E 17 26 9 14 1012.5 1012.3 0.0
25/05:00pm 27.2 28.1 20.8 68 4.2 ENE 17 24 9 13 1012.4 1012.2 0.0
25/04:30pm 28.7 29.8 21.2 64 5.0 E 17 24 9 13 1012.1 1011.9 0.0
25/04:00pm 29.0 30.4 21.0 62 5.3 ENE 15 19 8 10 1012.2 1012.0 0.0
25/03:30pm 29.5 29.6 20.4 58 6.0 ENE 20 33 11 18 1012.0 1011.8 0.0
25/03:00pm 29.4 29.7 19.7 56 6.4 ENE 17 30 9 16 1012.1 1011.9 0.0
25/02:30pm 30.0 29.8 19.7 54 6.8 E 20 28 11 15 1012.3 1012.1 0.0
25/02:00pm 30.5 30.9 19.8 52 7.0 E 17 28 9 15 1012.4 1012.2 0.0
25/01:30pm 30.6 31.0 19.9 52 7.0 ESE 17 26 9 14 1012.5 1012.3 0.0
25/01:00pm 31.4 32.0 19.4 49 7.9 ENE 15 24 8 13 1012.9 1012.7 0.0
25/12:30pm 30.2 30.3 19.2 51 7.2 ENE 17 30 9 16 1013.3 1013.1 0.0
25/12:00pm 31.0 31.4 19.0 48 7.8 ENE 15 30 8 16 1013.6 1013.4 0.0
25/11:30am 29.9 30.4 18.3 49 7.5 ENE 13 28 7 15 1014.0 1013.8 0.0
25/11:00am 30.8 31.5 18.8 48 7.8 ENE 13 24 7 13 1014.3 1014.1 0.0
25/10:30am 30.7 30.5 19.4 51 7.4 NE 19 26 10 14 1014.6 1014.4 0.0
25/10:00am 30.1 30.8 18.8 50 7.3 ENE 13 24 7 13 1014.9 1014.7 0.0
25/09:30am 29.6 30.2 18.7 52 7.0 E 13 20 7 11 1015.0 1014.8 0.0
25/09:00am 28.7 30.0 19.3 56 6.1 ESE 11 17 6 9 1015.3 1015.1 0.0
25/08:30am 27.5 29.3 18.8 59 5.6 SE 7 13 4 7 1015.5 1015.3 0.0
25/08:00am 27.0 29.3 19.4 63 4.9 SSE 6 11 3 6 1015.5 1015.3 0.0

Other Formats:

Comma delimited format used in spreadsheet applications
http://www.bom.gov.au/fwo/IDQ60801/IDQ60801.94370.axf

JavaScript Object Notation format (JSON) in row-major order
http://www.bom.gov.au/fwo/IDQ60801/IDQ60801.94370.json